sensor_id;sensor_type;location;lat;lon;timestamp;temperature;humidity
76785;SHT30;66893;44.316;0.092;2023-01-19T00:02:10;11.51;53.70
76785;SHT30;66893;44.316;0.092;2023-01-19T00:04:36;11.49;53.67
76785;SHT30;66893;44.316;0.092;2023-01-19T00:07:01;11.51;53.72
76785;SHT30;66893;44.316;0.092;2023-01-19T00:09:29;11.49;53.68
76785;SHT30;66893;44.316;0.092;2023-01-19T00:11:58;11.51;53.69
76785;SHT30;66893;44.316;0.092;2023-01-19T00:14:23;11.49;53.69
76785;SHT30;66893;44.316;0.092;2023-01-19T00:16:49;11.47;53.70
76785;SHT30;66893;44.316;0.092;2023-01-19T00:19:14;11.45;53.69
76785;SHT30;66893;44.316;0.092;2023-01-19T00:21:40;11.49;53.70
76785;SHT30;66893;44.316;0.092;2023-01-19T00:24:05;11.47;53.71
76785;SHT30;66893;44.316;0.092;2023-01-19T00:26:31;11.46;53.68
76785;SHT30;66893;44.316;0.092;2023-01-19T00:28:56;11.45;53.73
76785;SHT30;66893;44.316;0.092;2023-01-19T00:31:21;11.43;53.70
76785;SHT30;66893;44.316;0.092;2023-01-19T00:33:47;11.46;53.69
76785;SHT30;66893;44.316;0.092;2023-01-19T00:36:14;11.43;53.72
76785;SHT30;66893;44.316;0.092;2023-01-19T00:38:39;11.45;53.70
76785;SHT30;66893;44.316;0.092;2023-01-19T00:41:05;11.43;53.75
76785;SHT30;66893;44.316;0.092;2023-01-19T00:43:31;11.40;53.73
76785;SHT30;66893;44.316;0.092;2023-01-19T00:45:56;11.40;53.72
76785;SHT30;66893;44.316;0.092;2023-01-19T00:48:22;11.40;53.72
76785;SHT30;66893;44.316;0.092;2023-01-19T00:50:47;11.42;53.75
76785;SHT30;66893;44.316;0.092;2023-01-19T00:53:13;11.40;53.74
76785;SHT30;66893;44.316;0.092;2023-01-19T00:55:38;11.39;53.70
76785;SHT30;66893;44.316;0.092;2023-01-19T00:58:04;11.40;53.73
76785;SHT30;66893;44.316;0.092;2023-01-19T01:00:31;11.40;53.77
76785;SHT30;66893;44.316;0.092;2023-01-19T01:02:57;11.39;53.73
76785;SHT30;66893;44.316;0.092;2023-01-19T01:05:23;11.40;53.77
76785;SHT30;66893;44.316;0.092;2023-01-19T01:07:48;11.38;53.72
76785;SHT30;66893;44.316;0.092;2023-01-19T01:10:19;11.38;53.73
76785;SHT30;66893;44.316;0.092;2023-01-19T01:12:45;11.38;53.73
76785;SHT30;66893;44.316;0.092;2023-01-19T01:15:13;11.36;53.79
76785;SHT30;66893;44.316;0.092;2023-01-19T01:17:39;11.35;53.71
76785;SHT30;66893;44.316;0.092;2023-01-19T01:20:16;11.38;53.79
76785;SHT30;66893;44.316;0.092;2023-01-19T01:22:45;11.35;53.77
76785;SHT30;66893;44.316;0.092;2023-01-19T01:25:12;11.35;53.80
76785;SHT30;66893;44.316;0.092;2023-01-19T01:27:39;11.35;53.74
76785;SHT30;66893;44.316;0.092;2023-01-19T01:30:06;11.35;53.74
76785;SHT30;66893;44.316;0.092;2023-01-19T01:32:32;11.34;53.73
76785;SHT30;66893;44.316;0.092;2023-01-19T01:34:57;11.32;53.76
76785;SHT30;66893;44.316;0.092;2023-01-19T01:37:23;11.34;53.77
76785;SHT30;66893;44.316;0.092;2023-01-19T01:39:48;11.34;53.80
76785;SHT30;66893;44.316;0.092;2023-01-19T01:42:18;11.34;53.77
76785;SHT30;66893;44.316;0.092;2023-01-19T01:44:53;11.32;53.77
76785;SHT30;66893;44.316;0.092;2023-01-19T01:52:37;11.32;53.83
76785;SHT30;66893;44.316;0.092;2023-01-19T01:55:05;11.31;53.78
76785;SHT30;66893;44.316;0.092;2023-01-19T01:57:36;11.32;53.78
76785;SHT30;66893;44.316;0.092;2023-01-19T02:00:03;11.31;53.85
76785;SHT30;66893;44.316;0.092;2023-01-19T02:02:30;11.31;53.84
76785;SHT30;66893;44.316;0.092;2023-01-19T02:05:35;11.29;53.86
76785;SHT30;66893;44.316;0.092;2023-01-19T02:08:24;11.28;53.89
76785;SHT30;66893;44.316;0.092;2023-01-19T02:11:10;11.29;53.84
76785;SHT30;66893;44.316;0.092;2023-01-19T02:13:54;11.26;53.90
76785;SHT30;66893;44.316;0.092;2023-01-19T02:16:19;11.29;53.90
76785;SHT30;66893;44.316;0.092;2023-01-19T02:18:45;11.31;53.86
76785;SHT30;66893;44.316;0.092;2023-01-19T02:24:11;11.25;53.87
76785;SHT30;66893;44.316;0.092;2023-01-19T02:26:39;11.28;53.84
76785;SHT30;66893;44.316;0.092;2023-01-19T02:29:06;11.25;53.85
76785;SHT30;66893;44.316;0.092;2023-01-19T02:31:34;11.28;53.88
76785;SHT30;66893;44.316;0.092;2023-01-19T02:34:01;11.26;53.85
76785;SHT30;66893;44.316;0.092;2023-01-19T02:36:33;11.26;53.86
76785;SHT30;66893;44.316;0.092;2023-01-19T02:39:01;11.25;53.84
76785;SHT30;66893;44.316;0.092;2023-01-19T02:41:30;11.26;53.87
76785;SHT30;66893;44.316;0.092;2023-01-19T02:43:57;11.25;53.86
76785;SHT30;66893;44.316;0.092;2023-01-19T02:46:24;11.24;53.83
76785;SHT30;66893;44.316;0.092;2023-01-19T02:48:50;11.25;53.84
76785;SHT30;66893;44.316;0.092;2023-01-19T02:51:23;11.26;53.84
76785;SHT30;66893;44.316;0.092;2023-01-19T03:07:13;11.18;53.80
76785;SHT30;66893;44.316;0.092;2023-01-19T03:12:53;11.17;53.82
76785;SHT30;66893;44.316;0.092;2023-01-19T03:15:24;11.18;53.81
76785;SHT30;66893;44.316;0.092;2023-01-19T03:17:52;11.15;53.81
76785;SHT30;66893;44.316;0.092;2023-01-19T03:20:22;11.14;53.78
76785;SHT30;66893;44.316;0.092;2023-01-19T03:22:55;11.15;53.78
76785;SHT30;66893;44.316;0.092;2023-01-19T03:25:23;11.12;53.81
76785;SHT30;66893;44.316;0.092;2023-01-19T03:27:52;11.11;53.83
76785;SHT30;66893;44.316;0.092;2023-01-19T03:30:27;11.12;53.83
76785;SHT30;66893;44.316;0.092;2023-01-19T03:33:28;11.12;53.78
76785;SHT30;66893;44.316;0.092;2023-01-19T03:36:05;11.12;53.77
76785;SHT30;66893;44.316;0.092;2023-01-19T03:38:36;11.11;53.77
76785;SHT30;66893;44.316;0.092;2023-01-19T03:41:06;11.11;53.79
76785;SHT30;66893;44.316;0.092;2023-01-19T03:43:35;11.11;53.83
76785;SHT30;66893;44.316;0.092;2023-01-19T03:46:03;11.10;53.77
76785;SHT30;66893;44.316;0.092;2023-01-19T03:48:31;11.10;53.77
76785;SHT30;66893;44.316;0.092;2023-01-19T03:50:56;11.11;53.82
76785;SHT30;66893;44.316;0.092;2023-01-19T03:53:22;11.06;53.78
76785;SHT30;66893;44.316;0.092;2023-01-19T03:55:50;11.07;53.84
76785;SHT30;66893;44.316;0.092;2023-01-19T03:58:16;11.08;53.81
76785;SHT30;66893;44.316;0.092;2023-01-19T04:00:41;11.07;53.82
76785;SHT30;66893;44.316;0.092;2023-01-19T04:03:12;11.06;53.87
76785;SHT30;66893;44.316;0.092;2023-01-19T04:05:38;11.06;53.85
76785;SHT30;66893;44.316;0.092;2023-01-19T04:08:05;11.06;53.84
76785;SHT30;66893;44.316;0.092;2023-01-19T04:10:30;11.06;53.81
76785;SHT30;66893;44.316;0.092;2023-01-19T04:13:00;11.07;53.81
76785;SHT30;66893;44.316;0.092;2023-01-19T04:15:26;11.06;53.85
76785;SHT30;66893;44.316;0.092;2023-01-19T04:17:51;11.07;53.85
76785;SHT30;66893;44.316;0.092;2023-01-19T04:20:17;11.04;53.86
76785;SHT30;66893;44.316;0.092;2023-01-19T04:22:42;11.03;53.88
76785;SHT30;66893;44.316;0.092;2023-01-19T04:25:08;11.03;53.90
76785;SHT30;66893;44.316;0.092;2023-01-19T04:27:35;11.04;53.89
76785;SHT30;66893;44.316;0.092;2023-01-19T04:30:01;11.04;53.89
76785;SHT30;66893;44.316;0.092;2023-01-19T04:32:28;11.04;53.89
76785;SHT30;66893;44.316;0.092;2023-01-19T04:34:53;11.04;53.91
76785;SHT30;66893;44.316;0.092;2023-01-19T04:37:19;11.06;53.97
76785;SHT30;66893;44.316;0.092;2023-01-19T04:39:44;11.06;53.93
76785;SHT30;66893;44.316;0.092;2023-01-19T04:42:10;11.04;53.99
76785;SHT30;66893;44.316;0.092;2023-01-19T04:44:35;11.04;53.98
76785;SHT30;66893;44.316;0.092;2023-01-19T04:47:01;11.03;53.99
76785;SHT30;66893;44.316;0.092;2023-01-19T04:49:27;11.01;53.96
76785;SHT30;66893;44.316;0.092;2023-01-19T04:51:53;11.03;53.98
76785;SHT30;66893;44.316;0.092;2023-01-19T04:54:19;11.04;53.98
76785;SHT30;66893;44.316;0.092;2023-01-19T04:56:44;11.07;54.01
76785;SHT30;66893;44.316;0.092;2023-01-19T04:59:11;11.04;54.02
76785;SHT30;66893;44.316;0.092;2023-01-19T05:01:36;11.01;54.00
76785;SHT30;66893;44.316;0.092;2023-01-19T05:04:02;11.06;54.03
76785;SHT30;66893;44.316;0.092;2023-01-19T05:06:30;11.04;54.05
76785;SHT30;66893;44.316;0.092;2023-01-19T05:08:56;11.03;54.13
76785;SHT30;66893;44.316;0.092;2023-01-19T05:11:22;11.03;54.07
76785;SHT30;66893;44.316;0.092;2023-01-19T05:13:47;11.04;54.08
76785;SHT30;66893;44.316;0.092;2023-01-19T05:16:13;11.03;54.10
76785;SHT30;66893;44.316;0.092;2023-01-19T05:18:39;11.06;54.11
76785;SHT30;66893;44.316;0.092;2023-01-19T05:21:05;11.07;54.11
76785;SHT30;66893;44.316;0.092;2023-01-19T05:23:31;11.06;54.13
76785;SHT30;66893;44.316;0.092;2023-01-19T05:25:58;11.03;54.17
76785;SHT30;66893;44.316;0.092;2023-01-19T05:28:29;11.07;54.17
76785;SHT30;66893;44.316;0.092;2023-01-19T05:30:55;11.06;54.10
76785;SHT30;66893;44.316;0.092;2023-01-19T05:33:21;11.06;54.11
76785;SHT30;66893;44.316;0.092;2023-01-19T05:35:51;11.03;54.14
76785;SHT30;66893;44.316;0.092;2023-01-19T05:38:17;11.06;54.15
76785;SHT30;66893;44.316;0.092;2023-01-19T05:40:43;11.06;54.15
76785;SHT30;66893;44.316;0.092;2023-01-19T05:43:08;11.06;54.10
76785;SHT30;66893;44.316;0.092;2023-01-19T05:45:34;11.06;54.17
76785;SHT30;66893;44.316;0.092;2023-01-19T05:48:00;11.04;54.16
76785;SHT30;66893;44.316;0.092;2023-01-19T05:50:25;11.06;54.14
76785;SHT30;66893;44.316;0.092;2023-01-19T05:52:51;11.04;54.16
76785;SHT30;66893;44.316;0.092;2023-01-19T05:55:20;11.06;54.17
76785;SHT30;66893;44.316;0.092;2023-01-19T05:57:45;11.06;54.15
76785;SHT30;66893;44.316;0.092;2023-01-19T06:00:11;11.06;54.16
76785;SHT30;66893;44.316;0.092;2023-01-19T06:02:37;11.06;54.15
76785;SHT30;66893;44.316;0.092;2023-01-19T06:05:03;11.06;54.11
76785;SHT30;66893;44.316;0.092;2023-01-19T06:07:29;11.07;54.15
76785;SHT30;66893;44.316;0.092;2023-01-19T06:09:56;11.03;54.13
76785;SHT30;66893;44.316;0.092;2023-01-19T06:12:21;11.03;54.12
76785;SHT30;66893;44.316;0.092;2023-01-19T06:14:47;11.03;54.12
76785;SHT30;66893;44.316;0.092;2023-01-19T06:17:13;11.03;54.14
76785;SHT30;66893;44.316;0.092;2023-01-19T06:19:38;11.01;54.17
76785;SHT30;66893;44.316;0.092;2023-01-19T06:22:03;11.03;54.14
76785;SHT30;66893;44.316;0.092;2023-01-19T06:24:29;11.01;54.15
76785;SHT30;66893;44.316;0.092;2023-01-19T06:26:54;11.00;54.14
76785;SHT30;66893;44.316;0.092;2023-01-19T06:29:20;11.00;54.11
76785;SHT30;66893;44.316;0.092;2023-01-19T06:31:46;10.98;54.10
76785;SHT30;66893;44.316;0.092;2023-01-19T06:34:12;11.00;54.13
76785;SHT30;66893;44.316;0.092;2023-01-19T06:36:37;10.97;54.11
76785;SHT30;66893;44.316;0.092;2023-01-19T06:39:04;10.97;54.11
76785;SHT30;66893;44.316;0.092;2023-01-19T06:41:33;10.97;54.11
76785;SHT30;66893;44.316;0.092;2023-01-19T06:43:59;10.97;54.12
76785;SHT30;66893;44.316;0.092;2023-01-19T06:46:24;10.94;54.13
76785;SHT30;66893;44.316;0.092;2023-01-19T06:48:50;10.94;54.11
76785;SHT30;66893;44.316;0.092;2023-01-19T06:51:16;10.93;54.13
76785;SHT30;66893;44.316;0.092;2023-01-19T06:53:41;10.93;54.11
76785;SHT30;66893;44.316;0.092;2023-01-19T06:56:07;10.93;54.11
76785;SHT30;66893;44.316;0.092;2023-01-19T06:58:33;10.91;54.09
76785;SHT30;66893;44.316;0.092;2023-01-19T07:01:04;10.93;54.08
76785;SHT30;66893;44.316;0.092;2023-01-19T07:03:29;10.91;54.09
76785;SHT30;66893;44.316;0.092;2023-01-19T07:05:55;10.93;54.13
76785;SHT30;66893;44.316;0.092;2023-01-19T07:08:22;10.93;54.12
76785;SHT30;66893;44.316;0.092;2023-01-19T07:10:48;10.91;54.09
76785;SHT30;66893;44.316;0.092;2023-01-19T07:13:14;10.89;54.13
76785;SHT30;66893;44.316;0.092;2023-01-19T07:15:40;10.90;54.10
76785;SHT30;66893;44.316;0.092;2023-01-19T07:18:05;10.90;54.09
76785;SHT30;66893;44.316;0.092;2023-01-19T07:20:33;10.93;54.08
76785;SHT30;66893;44.316;0.092;2023-01-19T07:22:58;10.93;54.07
76785;SHT30;66893;44.316;0.092;2023-01-19T07:25:24;10.93;54.06
76785;SHT30;66893;44.316;0.092;2023-01-19T07:27:50;10.94;54.06
76785;SHT30;66893;44.316;0.092;2023-01-19T07:30:16;10.93;54.04
76785;SHT30;66893;44.316;0.092;2023-01-19T07:32:41;10.94;54.07
76785;SHT30;66893;44.316;0.092;2023-01-19T07:35:10;10.93;54.05
76785;SHT30;66893;44.316;0.092;2023-01-19T07:37:35;10.93;54.04
76785;SHT30;66893;44.316;0.092;2023-01-19T07:40:01;10.93;54.02
76785;SHT30;66893;44.316;0.092;2023-01-19T07:42:26;10.94;54.08
76785;SHT30;66893;44.316;0.092;2023-01-19T07:44:52;10.93;54.07
76785;SHT30;66893;44.316;0.092;2023-01-19T07:47:17;10.94;54.13
76785;SHT30;66893;44.316;0.092;2023-01-19T07:49:43;10.90;54.11
76785;SHT30;66893;44.316;0.092;2023-01-19T07:52:09;10.96;54.13
76785;SHT30;66893;44.316;0.092;2023-01-19T07:54:34;10.94;54.15
76785;SHT30;66893;44.316;0.092;2023-01-19T07:57:00;10.93;54.15
76785;SHT30;66893;44.316;0.092;2023-01-19T07:59:28;10.94;54.18
76785;SHT30;66893;44.316;0.092;2023-01-19T08:01:56;10.96;54.25
76785;SHT30;66893;44.316;0.092;2023-01-19T08:04:26;10.97;54.26
76785;SHT30;66893;44.316;0.092;2023-01-19T08:06:52;10.97;54.25
76785;SHT30;66893;44.316;0.092;2023-01-19T08:09:18;10.98;54.22
76785;SHT30;66893;44.316;0.092;2023-01-19T08:11:43;11.00;54.28
76785;SHT30;66893;44.316;0.092;2023-01-19T08:14:09;11.00;54.20
76785;SHT30;66893;44.316;0.092;2023-01-19T08:16:35;10.97;54.24
76785;SHT30;66893;44.316;0.092;2023-01-19T08:19:01;11.01;54.25
76785;SHT30;66893;44.316;0.092;2023-01-19T08:21:26;10.98;54.25
76785;SHT30;66893;44.316;0.092;2023-01-19T08:23:53;11.01;54.26
76785;SHT30;66893;44.316;0.092;2023-01-19T08:26:31;11.01;54.23
76785;SHT30;66893;44.316;0.092;2023-01-19T08:28:59;11.01;54.30
76785;SHT30;66893;44.316;0.092;2023-01-19T08:31:25;11.03;54.30
76785;SHT30;66893;44.316;0.092;2023-01-19T08:33:50;11.07;54.28
76785;SHT30;66893;44.316;0.092;2023-01-19T08:36:16;11.06;54.26
76785;SHT30;66893;44.316;0.092;2023-01-19T08:38:43;11.10;54.30
76785;SHT30;66893;44.316;0.092;2023-01-19T08:41:09;11.08;54.25
76785;SHT30;66893;44.316;0.092;2023-01-19T08:43:36;11.10;54.25
76785;SHT30;66893;44.316;0.092;2023-01-19T08:46:02;11.12;54.26
76785;SHT30;66893;44.316;0.092;2023-01-19T08:48:29;11.15;54.30
76785;SHT30;66893;44.316;0.092;2023-01-19T08:50:54;11.19;54.24
76785;SHT30;66893;44.316;0.092;2023-01-19T08:53:20;11.18;54.29
76785;SHT30;66893;44.316;0.092;2023-01-19T08:55:48;11.17;54.32
76785;SHT30;66893;44.316;0.092;2023-01-19T08:58:14;11.22;54.34
76785;SHT30;66893;44.316;0.092;2023-01-19T09:00:40;11.19;54.35
76785;SHT30;66893;44.316;0.092;2023-01-19T09:03:09;11.26;54.34
76785;SHT30;66893;44.316;0.092;2023-01-19T09:05:36;11.28;54.33
76785;SHT30;66893;44.316;0.092;2023-01-19T09:08:08;11.28;54.38
76785;SHT30;66893;44.316;0.092;2023-01-19T09:10:34;11.28;54.37
76785;SHT30;66893;44.316;0.092;2023-01-19T09:13:03;11.28;54.40
76785;SHT30;66893;44.316;0.092;2023-01-19T09:15:30;11.35;54.42
76785;SHT30;66893;44.316;0.092;2023-01-19T09:17:56;11.34;54.52
76785;SHT30;66893;44.316;0.092;2023-01-19T09:20:22;11.38;54.75
76785;SHT30;66893;44.316;0.092;2023-01-19T09:22:48;11.42;55.38
76785;SHT30;66893;44.316;0.092;2023-01-19T09:25:13;11.49;55.29
76785;SHT30;66893;44.316;0.092;2023-01-19T09:27:38;11.53;55.35
76785;SHT30;66893;44.316;0.092;2023-01-19T09:30:04;11.58;55.49
76785;SHT30;66893;44.316;0.092;2023-01-19T09:32:31;11.63;55.55
76785;SHT30;66893;44.316;0.092;2023-01-19T09:34:56;11.66;55.50
76785;SHT30;66893;44.316;0.092;2023-01-19T09:37:22;11.70;55.43
76785;SHT30;66893;44.316;0.092;2023-01-19T09:39:47;11.70;55.09
76785;SHT30;66893;44.316;0.092;2023-01-19T09:44:48;11.52;55.28
76785;SHT30;66893;44.316;0.092;2023-01-19T09:47:17;11.49;55.39
76785;SHT30;66893;44.316;0.092;2023-01-19T09:50:34;11.49;55.42
76785;SHT30;66893;44.316;0.092;2023-01-19T09:52:42;11.53;55.26
76785;SHT30;66893;44.316;0.092;2023-01-19T09:55:19;11.46;55.52
76785;SHT30;66893;44.316;0.092;2023-01-19T09:57:46;11.51;55.71
76785;SHT30;66893;44.316;0.092;2023-01-19T10:00:16;11.52;55.67
76785;SHT30;66893;44.316;0.092;2023-01-19T10:02:45;11.55;55.63
76785;SHT30;66893;44.316;0.092;2023-01-19T10:05:39;11.61;55.79
76785;SHT30;66893;44.316;0.092;2023-01-19T10:08:33;11.69;56.24
76785;SHT30;66893;44.316;0.092;2023-01-19T10:11:14;11.74;56.31
76785;SHT30;66893;44.316;0.092;2023-01-19T10:13:48;11.79;56.82
76785;SHT30;66893;44.316;0.092;2023-01-19T10:19:22;11.95;57.86
76785;SHT30;66893;44.316;0.092;2023-01-19T10:21:50;12.04;58.23
76785;SHT30;66893;44.316;0.092;2023-01-19T10:24:27;12.16;58.34
76785;SHT30;66893;44.316;0.092;2023-01-19T10:26:54;12.20;58.66
76785;SHT30;66893;44.316;0.092;2023-01-19T10:29:30;12.29;58.65
76785;SHT30;66893;44.316;0.092;2023-01-19T10:34:47;12.45;58.97
76785;SHT30;66893;44.316;0.092;2023-01-19T10:39:46;12.57;59.21
76785;SHT30;66893;44.316;0.092;2023-01-19T10:42:16;12.64;59.38
76785;SHT30;66893;44.316;0.092;2023-01-19T10:44:42;12.69;59.39
76785;SHT30;66893;44.316;0.092;2023-01-19T10:47:17;12.76;58.77
76785;SHT30;66893;44.316;0.092;2023-01-19T10:49:44;12.75;58.34
76785;SHT30;66893;44.316;0.092;2023-01-19T10:52:32;12.72;57.96
76785;SHT30;66893;44.316;0.092;2023-01-19T10:54:59;12.64;57.73
76785;SHT30;66893;44.316;0.092;2023-01-19T10:57:29;12.60;57.67
76785;SHT30;66893;44.316;0.092;2023-01-19T10:59:56;12.53;57.57
76785;SHT30;66893;44.316;0.092;2023-01-19T11:02:26;12.48;57.57
76785;SHT30;66893;44.316;0.092;2023-01-19T11:05:01;12.41;57.47
76785;SHT30;66893;44.316;0.092;2023-01-19T11:07:45;12.31;57.42
76785;SHT30;66893;44.316;0.092;2023-01-19T11:13:08;12.20;57.36
76785;SHT30;66893;44.316;0.092;2023-01-19T11:15:56;12.13;57.45
76785;SHT30;66893;44.316;0.092;2023-01-19T11:18:26;12.08;57.48
76785;SHT30;66893;44.316;0.092;2023-01-19T11:20:54;12.02;57.40
76785;SHT30;66893;44.316;0.092;2023-01-19T11:23:39;11.97;57.42
76785;SHT30;66893;44.316;0.092;2023-01-19T11:26:12;11.93;57.48
76785;SHT30;66893;44.316;0.092;2023-01-19T11:28:45;11.86;57.55
76785;SHT30;66893;44.316;0.092;2023-01-19T11:36:26;11.77;57.64
76785;SHT30;66893;44.316;0.092;2023-01-19T11:38:54;11.76;57.54
76785;SHT30;66893;44.316;0.092;2023-01-19T11:41:30;11.70;57.71
76785;SHT30;66893;44.316;0.092;2023-01-19T11:44:01;11.69;57.74
76785;SHT30;66893;44.316;0.092;2023-01-19T11:46:37;11.66;57.74
76785;SHT30;66893;44.316;0.092;2023-01-19T11:49:11;11.66;57.96
76785;SHT30;66893;44.316;0.092;2023-01-19T11:51:46;11.67;58.18
76785;SHT30;66893;44.316;0.092;2023-01-19T11:54:24;11.72;58.27
76785;SHT30;66893;44.316;0.092;2023-01-19T11:56:53;11.77;58.33
76785;SHT30;66893;44.316;0.092;2023-01-19T11:59:21;11.83;58.39
76785;SHT30;66893;44.316;0.092;2023-01-19T12:01:52;11.91;58.25
76785;SHT30;66893;44.316;0.092;2023-01-19T12:04:27;11.94;58.77
76785;SHT30;66893;44.316;0.092;2023-01-19T12:06:56;12.00;58.78
76785;SHT30;66893;44.316;0.092;2023-01-19T12:09:28;12.07;58.85
76785;SHT30;66893;44.316;0.092;2023-01-19T12:12:03;12.14;58.76
76785;SHT30;66893;44.316;0.092;2023-01-19T12:14:32;12.20;58.51
76785;SHT30;66893;44.316;0.092;2023-01-19T12:17:02;12.18;58.81
76785;SHT30;66893;44.316;0.092;2023-01-19T12:19:40;12.22;58.95
76785;SHT30;66893;44.316;0.092;2023-01-19T12:22:15;12.27;59.16
76785;SHT30;66893;44.316;0.092;2023-01-19T12:25:04;12.31;59.05
76785;SHT30;66893;44.316;0.092;2023-01-19T12:27:39;12.32;59.07
76785;SHT30;66893;44.316;0.092;2023-01-19T12:30:16;12.35;59.03
76785;SHT30;66893;44.316;0.092;2023-01-19T12:32:43;12.36;59.09
76785;SHT30;66893;44.316;0.092;2023-01-19T12:38:44;12.41;59.14
76785;SHT30;66893;44.316;0.092;2023-01-19T12:41:20;12.44;59.16
76785;SHT30;66893;44.316;0.092;2023-01-19T12:43:47;12.45;59.16
76785;SHT30;66893;44.316;0.092;2023-01-19T12:46:27;12.46;59.15
76785;SHT30;66893;44.316;0.092;2023-01-19T12:48:53;12.45;59.18
76785;SHT30;66893;44.316;0.092;2023-01-19T12:51:23;12.48;59.09
76785;SHT30;66893;44.316;0.092;2023-01-19T12:53:52;12.52;59.10
76785;SHT30;66893;44.316;0.092;2023-01-19T12:56:18;12.50;59.04
76785;SHT30;66893;44.316;0.092;2023-01-19T12:58:48;12.50;59.11
76785;SHT30;66893;44.316;0.092;2023-01-19T13:01:17;12.52;59.09
76785;SHT30;66893;44.316;0.092;2023-01-19T13:09:32;12.49;58.77
76785;SHT30;66893;44.316;0.092;2023-01-19T13:14:40;12.44;58.83
76785;SHT30;66893;44.316;0.092;2023-01-19T13:17:32;12.39;58.80
76785;SHT30;66893;44.316;0.092;2023-01-19T13:20:05;12.36;58.78
76785;SHT30;66893;44.316;0.092;2023-01-19T13:22:53;12.31;58.79
76785;SHT30;66893;44.316;0.092;2023-01-19T13:25:36;12.29;58.78
76785;SHT30;66893;44.316;0.092;2023-01-19T13:28:06;12.25;58.78
76785;SHT30;66893;44.316;0.092;2023-01-19T13:30:34;12.25;58.77
76785;SHT30;66893;44.316;0.092;2023-01-19T13:33:11;12.21;58.83
76785;SHT30;66893;44.316;0.092;2023-01-19T13:35:39;12.21;58.81
76785;SHT30;66893;44.316;0.092;2023-01-19T13:38:13;12.17;58.84
76785;SHT30;66893;44.316;0.092;2023-01-19T13:40:38;12.16;58.84
76785;SHT30;66893;44.316;0.092;2023-01-19T13:43:14;12.13;58.87
76785;SHT30;66893;44.316;0.092;2023-01-19T13:45:46;12.14;58.90
76785;SHT30;66893;44.316;0.092;2023-01-19T13:48:16;12.11;58.97
76785;SHT30;66893;44.316;0.092;2023-01-19T13:50:55;12.11;58.94
76785;SHT30;66893;44.316;0.092;2023-01-19T13:53:21;12.10;59.02
76785;SHT30;66893;44.316;0.092;2023-01-19T13:56:05;12.08;59.04
76785;SHT30;66893;44.316;0.092;2023-01-19T13:58:30;12.10;59.15
76785;SHT30;66893;44.316;0.092;2023-01-19T14:00:56;12.13;59.16
76785;SHT30;66893;44.316;0.092;2023-01-19T14:03:23;12.16;59.17
76785;SHT30;66893;44.316;0.092;2023-01-19T14:05:53;12.18;59.17
76785;SHT30;66893;44.316;0.092;2023-01-19T14:08:19;12.20;59.15
76785;SHT30;66893;44.316;0.092;2023-01-19T14:13:30;12.25;59.16
76785;SHT30;66893;44.316;0.092;2023-01-19T14:15:58;12.25;59.17
76785;SHT30;66893;44.316;0.092;2023-01-19T14:39:59;12.35;59.31
76785;SHT30;66893;44.316;0.092;2023-01-19T14:42:26;12.36;59.45
76785;SHT30;66893;44.316;0.092;2023-01-19T14:44:54;12.38;59.42
76785;SHT30;66893;44.316;0.092;2023-01-19T14:47:45;12.39;59.39
76785;SHT30;66893;44.316;0.092;2023-01-19T14:52:42;12.41;59.39
76785;SHT30;66893;44.316;0.092;2023-01-19T14:55:22;12.42;59.44
76785;SHT30;66893;44.316;0.092;2023-01-19T14:57:49;12.44;59.42
76785;SHT30;66893;44.316;0.092;2023-01-19T15:00:17;12.44;59.36
76785;SHT30;66893;44.316;0.092;2023-01-19T15:02:43;12.45;59.38
76785;SHT30;66893;44.316;0.092;2023-01-19T15:05:09;12.46;59.40
76785;SHT30;66893;44.316;0.092;2023-01-19T15:07:39;12.48;59.33
76785;SHT30;66893;44.316;0.092;2023-01-19T15:10:19;12.45;59.34
76785;SHT30;66893;44.316;0.092;2023-01-19T15:12:47;12.46;59.39
76785;SHT30;66893;44.316;0.092;2023-01-19T15:15:21;12.48;59.39
76785;SHT30;66893;44.316;0.092;2023-01-19T15:17:50;12.45;59.37
76785;SHT30;66893;44.316;0.092;2023-01-19T15:20:20;12.46;59.35
76785;SHT30;66893;44.316;0.092;2023-01-19T15:22:47;12.52;59.37
76785;SHT30;66893;44.316;0.092;2023-01-19T15:25:21;12.50;59.37
76785;SHT30;66893;44.316;0.092;2023-01-19T15:27:47;12.50;59.41
76785;SHT30;66893;44.316;0.092;2023-01-19T15:30:14;12.52;59.46
76785;SHT30;66893;44.316;0.092;2023-01-19T15:32:40;12.50;59.38
76785;SHT30;66893;44.316;0.092;2023-01-19T15:35:19;12.52;59.40
76785;SHT30;66893;44.316;0.092;2023-01-19T15:37:45;12.50;59.40
76785;SHT30;66893;44.316;0.092;2023-01-19T15:40:12;12.52;59.45
76785;SHT30;66893;44.316;0.092;2023-01-19T15:42:38;12.53;59.45
76785;SHT30;66893;44.316;0.092;2023-01-19T15:47:53;12.53;59.48
76785;SHT30;66893;44.316;0.092;2023-01-19T15:50:19;12.55;59.49
76785;SHT30;66893;44.316;0.092;2023-01-19T15:52:45;12.55;59.49
76785;SHT30;66893;44.316;0.092;2023-01-19T15:55:11;12.53;59.52
76785;SHT30;66893;44.316;0.092;2023-01-19T15:57:36;12.56;59.46
76785;SHT30;66893;44.316;0.092;2023-01-19T16:00:06;12.56;59.46
76785;SHT30;66893;44.316;0.092;2023-01-19T16:02:31;12.56;59.52
76785;SHT30;66893;44.316;0.092;2023-01-19T16:04:57;12.56;59.51
76785;SHT30;66893;44.316;0.092;2023-01-19T16:07:22;12.57;59.52
76785;SHT30;66893;44.316;0.092;2023-01-19T16:09:47;12.59;59.59
76785;SHT30;66893;44.316;0.092;2023-01-19T16:12:14;12.60;59.63
76785;SHT30;66893;44.316;0.092;2023-01-19T16:14:40;12.60;59.68
76785;SHT30;66893;44.316;0.092;2023-01-19T16:17:05;12.64;59.73
76785;SHT30;66893;44.316;0.092;2023-01-19T16:19:31;12.64;59.73
76785;SHT30;66893;44.316;0.092;2023-01-19T16:21:56;12.66;59.72
76785;SHT30;66893;44.316;0.092;2023-01-19T16:24:22;12.66;59.71
76785;SHT30;66893;44.316;0.092;2023-01-19T16:26:47;12.67;59.74
76785;SHT30;66893;44.316;0.092;2023-01-19T16:29:13;12.67;59.74
76785;SHT30;66893;44.316;0.092;2023-01-19T16:31:40;12.67;59.75
76785;SHT30;66893;44.316;0.092;2023-01-19T16:34:06;12.67;59.69
76785;SHT30;66893;44.316;0.092;2023-01-19T16:36:33;12.67;59.72
76785;SHT30;66893;44.316;0.092;2023-01-19T16:39:05;12.64;59.70
76785;SHT30;66893;44.316;0.092;2023-01-19T16:41:32;12.69;59.73
76785;SHT30;66893;44.316;0.092;2023-01-19T16:43:57;12.69;59.72
76785;SHT30;66893;44.316;0.092;2023-01-19T16:46:28;12.67;59.72
76785;SHT30;66893;44.316;0.092;2023-01-19T16:48:59;12.67;59.70
76785;SHT30;66893;44.316;0.092;2023-01-19T16:51:24;12.67;59.73
76785;SHT30;66893;44.316;0.092;2023-01-19T16:53:50;12.64;59.75
76785;SHT30;66893;44.316;0.092;2023-01-19T16:56:16;12.66;59.72
76785;SHT30;66893;44.316;0.092;2023-01-19T16:58:42;12.66;59.79
76785;SHT30;66893;44.316;0.092;2023-01-19T17:01:12;12.63;59.78
76785;SHT30;66893;44.316;0.092;2023-01-19T17:03:38;12.66;59.84
76785;SHT30;66893;44.316;0.092;2023-01-19T17:06:09;12.67;59.93